Terminal Aerodrome Forecast
Issued by NWS

Home | Current Version | Previous Version | Text Only | Print | Product List | Glossary On
Versions: 1 2 3 4 5 6 7 8 9 10 11 12 13 14 15 16 17
000
FTUS45 KTWC 221131
TAFOLS
TAF
KOLS 221131Z 2212/2312 VRB03KT P6SM SCT070 BKN120
     FM221800 26008KT P6SM VCTS SCT060CB BKN100
     FM230200 VRB04KT P6SM SCT080 BKN120 PROB30 2302/2312 SHRA=

USA.gov is the U.S. government's official web portal to all federal, state and local government web resources and services.